Time;durP1;ratioP1;P1;durP2;ratioP2;P2;SDS_P1;SDS_P2;PMS_P1;PMS_P2;Temp;Humidity;BMP_temperature;BMP_pressure;BME280_temperature;BME280_humidity;BME280_pressure;Samples;Min_cycle;Max_cycle;Signal;HPM_P1;HPM_P2
2022/12/30 00:00:41;;;;;;;36.20;21.00;;;;;;;-1.95;100.00;101436.41;107801;1261;73771;-81
2022/12/30 00:03:27;;;;;;;41.30;22.20;;;;;;;-1.96;100.00;101434.38;107933;1264;62259;-80
2022/12/30 00:05:56;;;;;;;38.20;21.70;;;;;;;-1.89;100.00;101428.48;108160;1260;60759;-83
2022/12/30 00:08:46;;;;;;;48.60;23.50;;;;;;;-1.81;100.00;101423.98;107734;1259;74852;-83
2022/12/30 00:11:21;;;;;;;45.40;25.20;;;;;;;-1.75;100.00;101420.84;108037;1270;70966;-81
2022/12/30 00:35:22;;;;;;;49.00;23.00;;;;;;;-1.39;100.00;101424.37;107865;1259;72515;-83
2022/12/30 00:37:51;;;;;;;42.80;21.80;;;;;;;-1.37;100.00;101432.05;107835;1267;59648;-84
2022/12/30 00:40:21;;;;;;;39.00;21.50;;;;;;;-1.38;100.00;101426.42;107858;1266;60425;-83
2022/12/30 00:43:08;;;;;;;32.70;18.40;;;;;;;-1.41;100.00;101430.58;107844;1266;73698;-82
2022/12/30 00:45:42;;;;;;;40.80;20.40;;;;;;;-1.43;100.00;101427.85;107937;1263;71141;-82
2022/12/30 00:56:34;;;;;;;43.50;23.30;;;;;;;-1.52;100.00;101421.27;107863;1264;61212;-82
2022/12/30 00:59:04;;;;;;;43.40;24.20;;;;;;;-1.50;100.00;101423.82;107851;1260;74293;-82
2022/12/30 01:01:33;;;;;;;42.80;23.70;;;;;;;-1.47;100.00;101427.02;107832;1261;71214;-82
2022/12/30 01:04:02;;;;;;;46.90;24.30;;;;;;;-1.41;100.00;101417.05;108089;1262;69361;-81
2022/12/30 01:06:37;;;;;;;44.40;23.10;;;;;;;-1.34;100.00;101416.12;107822;1269;73764;-82
2022/12/30 01:09:06;;;;;;;42.50;22.40;;;;;;;-1.32;100.00;101417.61;107756;1260;61168;-82
2022/12/30 01:11:35;;;;;;;40.60;23.10;;;;;;;-1.32;100.00;101416.95;107873;1264;61215;-81
2022/12/30 01:14:04;;;;;;;43.80;23.50;;;;;;;-1.29;100.00;101416.92;107930;1272;74054;-82
2022/12/30 01:16:33;;;;;;;42.00;22.20;;;;;;;-1.25;100.00;101421.65;107740;1261;71146;-84
2022/12/30 01:19:02;;;;;;;37.30;21.00;;;;;;;-1.24;100.00;101420.26;107845;1260;68557;-83
2022/12/30 01:21:31;;;;;;;38.60;22.20;;;;;;;-1.28;100.00;101420.65;108041;1258;74539;-81
2022/12/30 01:23:59;;;;;;;41.00;22.50;;;;;;;-1.31;100.00;101415.40;107968;1262;61401;-82
2022/12/30 01:26:28;;;;;;;41.30;22.80;;;;;;;-1.33;100.00;101417.46;107815;1270;60830;-82
2022/12/30 01:28:57;;;;;;;46.70;23.20;;;;;;;-1.31;100.00;101416.77;108028;1252;72919;-83
2022/12/30 01:31:26;;;;;;;44.60;22.20;;;;;;;-1.31;100.00;101411.30;107937;1254;69392;-80
2022/12/30 01:33:55;;;;;;;40.10;21.30;;;;;;;-1.32;100.00;101410.27;107949;1261;68633;-81
2022/12/30 01:36:24;;;;;;;38.70;21.80;;;;;;;-1.31;100.00;101408.05;107912;1266;73524;-81
2022/12/30 01:38:52;;;;;;;41.10;22.30;;;;;;;-1.30;100.00;101413.17;107881;1265;62211;-81
2022/12/30 01:41:21;;;;;;;38.90;21.60;;;;;;;-1.24;100.00;101415.83;107948;1266;59336;-82
2022/12/30 01:43:50;;;;;;;42.20;22.00;;;;;;;-1.23;100.00;101417.86;107839;1264;71933;-82
2022/12/30 01:46:39;;;;;;;39.50;21.20;;;;;;;-1.24;100.00;101419.59;108055;1261;69676;-81
2022/12/30 01:49:08;;;;;;;42.80;22.00;;;;;;;-1.25;100.00;101415.32;108082;1258;69275;-82
2022/12/30 01:51:37;;;;;;;41.50;22.80;;;;;;;-1.24;100.00;101418.23;107955;1263;71273;-81
2022/12/30 01:54:06;;;;;;;46.20;22.30;;;;;;;-1.24;100.00;101413.09;107777;1266;61709;-81
2022/12/30 01:56:40;;;;;;;43.90;22.60;;;;;;;-1.21;100.00;101411.86;107945;1264;60246;-81
2022/12/30 01:59:17;;;;;;;44.20;22.40;;;;;;;-1.18;100.00;101406.17;107917;1260;72912;-82
2022/12/30 02:01:47;;;;;;;41.50;21.00;;;;;;;-1.16;100.00;101405.64;107940;1261;69560;-82
2022/12/30 02:04:21;;;;;;;38.90;22.30;;;;;;;-1.19;100.00;101402.09;107815;1266;70358;-80
2022/12/30 02:07:22;;;;;;;39.70;21.10;;;;;;;-1.13;100.00;101408.67;107818;1257;72760;-82
2022/12/30 02:09:52;;;;;;;31.60;19.40;;;;;;;-1.04;100.00;101401.71;108103;1266;61340;-81
2022/12/30 02:12:21;;;;;;;35.70;19.00;;;;;;;-0.99;100.00;101400.79;107938;1256;58810;-81
2022/12/30 02:14:51;;;;;;;36.80;19.70;;;;;;;-1.02;100.00;101396.20;107891;1258;72436;-81
2022/12/30 02:17:48;;;;;;;40.50;19.20;;;;;;;-0.99;100.00;101403.87;107779;1258;70505;-82
2022/12/30 02:20:23;;;;;;;34.40;18.20;;;;;;;-0.98;100.00;101404.55;107958;1263;70193;-81
2022/12/30 02:23:37;;;;;;;33.00;18.90;;;;;;;-0.97;100.00;101403.33;108015;1263;74058;-81
2022/12/30 02:26:46;;;;;;;36.20;19.20;;;;;;;-1.01;100.00;101400.99;107927;1263;61252;-81
2022/12/30 02:30:15;;;;;;;37.20;19.20;;;;;;;-1.02;100.00;101404.10;107926;1271;58644;-81
2022/12/30 02:33:16;;;;;;;33.70;18.50;;;;;;;-1.03;100.00;101403.75;107912;1263;71619;-81
2022/12/30 02:36:16;;;;;;;31.90;18.20;;;;;;;-1.06;100.00;101402.77;108112;1259;70234;-81
2022/12/30 02:38:55;;;;;;;30.10;18.50;;;;;;;-1.11;100.00;101396.17;107752;1263;70531;-79
2022/12/30 02:45:02;;;;;;;32.50;18.10;;;;;;;-1.13;100.00;101397.23;107793;1272;61061;-80
2022/12/30 02:48:15;;;;;;;36.40;19.40;;;;;;;-1.09;100.00;101395.30;107792;1266;59460;-81
2022/12/30 02:53:39;;;;;;;35.40;18.00;;;;;;;-0.99;100.00;101401.31;107921;1261;69587;-81
2022/12/30 02:56:08;;;;;;;37.00;19.60;;;;;;;-0.97;100.00;101402.81;107723;1266;70480;-82
2022/12/30 02:58:44;;;;;;;35.90;19.30;;;;;;;-0.92;100.00;101404.96;107629;1273;71530;-81
2022/12/30 03:04:45;;;;;;;41.20;22.30;;;;;;;-0.95;100.00;101399.36;107959;1264;59297;-82
2022/12/30 03:07:56;;;;;;;38.10;23.40;;;;;;;-1.03;100.00;101393.16;107889;1264;71602;-81
2022/12/30 03:13:35;;;;;;;37.40;19.80;;;;;;;-0.96;100.00;101387.26;107877;1262;68635;-80
2022/12/30 03:16:29;;;;;;;34.00;18.50;;;;;;;-0.97;100.00;101391.19;107862;1264;72002;-81
2022/12/30 03:19:01;;;;;;;;;;;;;;;-0.89;100.00;101386.62;107962;1263;60236;-81
2022/12/30 03:21:36;;;;;;;31.40;17.70;;;;;;;-0.84;100.00;101385.04;107966;1260;59348;-82
2022/12/30 03:27:05;;;;;;;30.60;19.20;;;;;;;-0.91;100.00;101389.23;108033;1262;68416;-81
2022/12/30 03:29:44;;;;;;;31.70;18.10;;;;;;;-1.00;100.00;101392.26;108026;1260;68624;-81
2022/12/30 03:32:16;;;;;;;34.50;19.10;;;;;;;-1.03;100.00;101389.40;107765;1266;71100;-81
2022/12/30 03:34:47;;;;;;;32.50;19.40;;;;;;;-1.04;100.00;101391.63;107740;1266;59756;-81
2022/12/30 03:37:26;;;;;;;31.60;18.30;;;;;;;-1.06;100.00;101394.05;107874;1263;58871;-79
2022/12/30 03:40:05;;;;;;;33.00;18.40;;;;;;;-1.04;100.00;101395.73;107841;1267;72069;-80
2022/12/30 03:42:34;;;;;;;30.70;17.80;;;;;;;-1.03;100.00;101400.34;107944;1261;71196;-81
2022/12/30 03:45:04;;;;;;;36.20;18.40;;;;;;;-1.08;100.00;101402.62;107647;1267;70886;-80
2022/12/30 03:47:33;;;;;;;30.20;18.10;;;;;;;-1.16;100.00;101397.42;107741;1263;71779;-82
2022/12/30 03:50:03;;;;;;;34.30;18.60;;;;;;;-1.15;100.00;101405.28;107923;1266;59746;-81
2022/12/30 03:52:32;;;;;;;32.30;18.00;;;;;;;-1.18;100.00;101398.30;107904;1266;61227;-82
2022/12/30 03:55:00;;;;;;;31.40;17.90;;;;;;;-1.09;100.00;101403.33;107797;1267;73283;-83
2022/12/30 03:57:29;;;;;;;32.30;17.80;;;;;;;-1.11;100.00;101411.20;107946;1260;72616;-82
2022/12/30 03:59:59;;;;;;;31.70;18.20;;;;;;;-1.11;100.00;101413.77;107942;1261;69943;-82
2022/12/30 04:02:28;;;;;;;32.10;17.90;;;;;;;-1.12;100.00;101413.61;107740;1269;71205;-82
2022/12/30 04:04:57;;;;;;;34.90;17.50;;;;;;;-1.16;100.00;101413.16;107908;1254;59617;-82
2022/12/30 04:07:33;;;;;;;29.70;18.40;;;;;;;-1.21;100.00;101410.30;107945;1263;61207;-81
2022/12/30 04:10:04;;;;;;;35.60;18.70;;;;;;;-1.21;100.00;101407.23;107822;1269;74292;-80
2022/12/30 04:12:33;;;;;;;33.40;18.10;;;;;;;-1.22;100.00;101408.44;107892;1256;70373;-81
2022/12/30 04:15:02;;;;;;;34.70;19.20;;;;;;;-1.30;100.00;101410.27;108007;1255;70817;-82
2022/12/30 04:17:31;;;;;;;37.20;18.00;;;;;;;-1.36;100.00;101409.48;107870;1260;72295;-81
2022/12/30 04:20:00;;;;;;;35.00;18.00;;;;;;;-1.41;100.00;101411.41;107873;1261;60034;-80
2022/12/30 04:22:29;;;;;;;33.80;19.20;;;;;;;-1.40;100.00;101415.69;107847;1266;59651;-83
2022/12/30 04:24:58;;;;;;;33.10;17.50;;;;;;;-1.42;100.00;101414.16;107921;1260;71646;-84
2022/12/30 04:27:27;;;;;;;34.60;18.80;;;;;;;-1.42;100.00;101417.06;108017;1265;69556;-84
2022/12/30 04:29:56;;;;;;;37.90;20.40;;;;;;;-1.45;100.00;101413.85;107851;1260;70499;-82
2022/12/30 04:32:25;;;;;;;41.10;20.50;;;;;;;-1.46;100.00;101420.19;107902;1256;73609;-82
2022/12/30 04:34:53;;;;;;;41.60;20.20;;;;;;;-1.47;100.00;101422.59;107798;1253;61939;-83
2022/12/30 04:37:22;;;;;;;43.20;22.50;;;;;;;-1.50;100.00;101420.91;107876;1260;59185;-83
2022/12/30 04:39:51;;;;;;;41.60;21.30;;;;;;;-1.54;100.00;101422.83;107917;1263;72813;-84
2022/12/30 04:42:20;;;;;;;37.60;20.70;;;;;;;-1.54;100.00;101424.36;108063;1264;72134;-83
2022/12/30 04:44:49;;;;;;;37.10;19.40;;;;;;;-1.49;100.00;101422.79;107914;1263;70798;-84
2022/12/30 04:47:18;;;;;;;40.40;21.60;;;;;;;-1.47;100.00;101423.45;107653;1263;73347;-82
2022/12/30 04:49:47;;;;;;;39.80;20.70;;;;;;;-1.43;100.00;101421.67;107713;1255;58776;-81
2022/12/30 04:52:16;;;;;;;38.70;20.90;;;;;;;-1.45;100.00;101421.02;107799;1263;59675;-83
2022/12/30 04:54:45;;;;;;;47.70;21.90;;;;;;;-1.46;100.00;101424.80;107718;1271;72546;-81
2022/12/30 04:57:14;;;;;;;46.00;23.20;;;;;;;-1.49;100.00;101423.98;107906;1258;72520;-83
2022/12/30 04:59:43;;;;;;;49.60;23.90;;;;;;;-1.46;100.00;101426.67;107772;1263;68419;-84
2022/12/30 05:02:12;;;;;;;52.40;23.90;;;;;;;-1.47;100.00;101427.88;107675;1260;73612;-83
2022/12/30 05:04:41;;;;;;;54.80;26.30;;;;;;;-1.52;100.00;101431.35;107710;1262;61015;-82
2022/12/30 05:07:10;;;;;;;54.80;27.50;;;;;;;-1.58;100.00;101432.09;107751;1263;60924;-84
2022/12/30 05:09:39;;;;;;;61.30;26.40;;;;;;;-1.67;100.00;101433.74;107673;1266;74018;-82
2022/12/30 05:12:08;;;;;;;56.50;27.10;;;;;;;-1.79;100.00;101418.83;108071;1264;71909;-82
2022/12/30 05:14:37;;;;;;;53.60;27.70;;;;;;;-1.72;100.00;101432.94;107953;1260;71019;-84
2022/12/30 05:17:06;;;;;;;48.50;24.80;;;;;;;-1.77;100.00;101429.40;107879;1263;74191;-81
2022/12/30 05:19:34;;;;;;;53.80;26.40;;;;;;;-1.81;100.00;101434.06;108173;1257;62385;-82
2022/12/30 05:22:04;;;;;;;49.00;27.00;;;;;;;-1.81;100.00;101430.64;107985;1257;60881;-82
2022/12/30 05:27:20;;;;;;;67.60;38.60;;;;;;;-1.85;100.00;101432.89;107783;1263;70891;-82
2022/12/30 05:29:49;;;;;;;53.00;32.60;;;;;;;-1.89;100.00;101433.27;107964;1258;68807;-82
2022/12/30 05:32:18;;;;;;;55.30;31.00;;;;;;;-1.91;100.00;101430.39;107969;1260;74950;-82
2022/12/30 05:34:47;;;;;;;53.90;28.30;;;;;;;-1.88;100.00;101431.05;107907;1261;62421;-82
2022/12/30 05:37:16;;;;;;;49.40;26.20;;;;;;;-1.86;100.00;101434.45;107699;1257;61687;-81
2022/12/30 05:39:45;;;;;;;46.90;24.20;;;;;;;-1.82;100.00;101437.48;107732;1267;74039;-82
2022/12/30 05:42:13;;;;;;;49.40;25.70;;;;;;;-1.79;100.00;101439.51;108076;1255;71604;-82
2022/12/30 05:44:43;;;;;;;43.80;25.70;;;;;;;-1.75;100.00;101442.36;107835;1264;70115;-82
2022/12/30 05:47:11;;;;;;;39.50;23.00;;;;;;;-1.74;100.00;101441.15;107805;1264;73730;-82
2022/12/30 05:49:41;;;;;;;47.10;24.60;;;;;;;-1.74;100.00;101436.72;107892;1263;60601;-83
2022/12/30 05:52:13;;;;;;;41.80;23.20;;;;;;;-1.78;100.00;101440.50;107792;1261;60420;-83
2022/12/30 05:54:42;;;;;;;36.70;21.30;;;;;;;-1.82;100.00;101443.63;107757;1264;74379;-80
2022/12/30 05:57:11;;;;;;;44.50;23.80;;;;;;;-1.78;100.00;101447.00;107953;1269;70691;-81
2022/12/30 05:59:40;;;;;;;41.50;22.90;;;;;;;-1.74;100.00;101452.09;107946;1260;70874;-85
2022/12/30 06:02:09;;;;;;;38.20;21.30;;;;;;;-1.80;100.00;101454.36;107908;1261;73694;-83
2022/12/30 06:04:38;;;;;;;39.70;21.90;;;;;;;-1.87;100.00;101457.67;107967;1263;61002;-84
2022/12/30 06:07:07;;;;;;;42.50;22.80;;;;;;;-1.95;100.00;101459.27;107984;1263;60416;-84
2022/12/30 06:09:36;;;;;;;38.70;21.30;;;;;;;-1.98;100.00;101454.70;108044;1255;74847;-79
2022/12/30 06:12:05;;;;;;;42.60;23.50;;;;;;;-1.98;100.00;101461.52;108108;1256;72521;-82
2022/12/30 06:14:34;;;;;;;45.50;26.90;;;;;;;-1.97;100.00;101462.20;108067;1257;70357;-80
2022/12/30 06:17:03;;;;;;;49.50;27.70;;;;;;;-1.98;100.00;101467.50;108075;1266;74351;-81
2022/12/30 06:19:32;;;;;;;39.00;22.90;;;;;;;-2.04;100.00;101464.81;108060;1270;61303;-80
2022/12/30 06:22:01;;;;;;;38.20;22.00;;;;;;;-2.03;100.00;101466.52;107892;1262;60642;-82
2022/12/30 06:24:30;;;;;;;42.00;24.60;;;;;;;-2.00;100.00;101468.37;108036;1262;74746;-83
2022/12/30 06:26:58;;;;;;;42.90;23.10;;;;;;;-1.92;100.00;101476.50;108075;1263;72432;-82
2022/12/30 06:29:28;;;;;;;42.70;22.30;;;;;;;-1.87;100.00;101477.48;108069;1257;69967;-83
2022/12/30 06:31:57;;;;;;;37.50;21.80;;;;;;;-1.79;100.00;101477.75;108065;1253;74204;-84
2022/12/30 06:34:26;;;;;;;40.50;22.20;;;;;;;-1.66;100.00;101475.91;108023;1264;61020;-82
2022/12/30 06:36:55;;;;;;;39.10;22.60;;;;;;;-1.55;100.00;101471.20;108051;1257;60092;-83
2022/12/30 06:39:24;;;;;;;41.20;23.10;;;;;;;-1.41;100.00;101473.27;107847;1260;73587;-84
2022/12/30 06:41:53;;;;;;;49.40;25.00;;;;;;;-1.33;100.00;101474.38;108150;1252;72647;-81
2022/12/30 06:44:21;;;;;;;43.50;24.70;;;;;;;-1.27;99.99;101475.66;108017;1253;69858;-79
2022/12/30 06:46:50;;;;;;;48.50;26.80;;;;;;;-1.24;99.97;101466.94;108027;1257;71662;-78
2022/12/30 06:49:19;;;;;;;43.00;23.30;;;;;;;-1.23;100.00;101467.78;107760;1266;58627;-81
2022/12/30 06:51:48;;;;;;;47.70;25.10;;;;;;;-1.21;100.00;101471.50;107968;1263;58671;-81
2022/12/30 06:54:17;;;;;;;41.00;23.20;;;;;;;-1.15;100.00;101472.11;107911;1264;71617;-83
2022/12/30 06:56:46;;;;;;;42.40;22.90;;;;;;;-1.09;100.00;101478.02;108134;1255;68462;-82
2022/12/30 06:59:15;;;;;;;40.70;21.60;;;;;;;-1.13;100.00;101480.98;108052;1267;68958;-74
2022/12/30 07:01:44;;;;;;;45.60;24.90;;;;;;;-1.07;100.00;101476.46;107919;1260;73621;-82
2022/12/30 07:04:12;;;;;;;43.00;23.30;;;;;;;-0.99;100.00;101477.58;107955;1267;62332;-83
2022/12/30 07:06:41;;;;;;;41.70;24.40;;;;;;;-0.92;100.00;101477.98;108158;1266;59931;-84
2022/12/30 07:09:10;;;;;;;42.60;23.40;;;;;;;-0.87;100.00;101480.50;108002;1257;72025;-82
2022/12/30 07:11:39;;;;;;;44.20;23.80;;;;;;;-0.74;100.00;101486.16;108157;1254;69938;-82
2022/12/30 07:14:08;;;;;;;41.10;22.70;;;;;;;-0.62;100.00;101491.11;107941;1263;69145;-76
2022/12/30 07:16:37;;;;;;;44.00;24.40;;;;;;;-0.48;100.00;101483.73;108025;1262;71869;-81
2022/12/30 07:19:06;;;;;;;43.00;24.60;;;;;;;-0.35;100.00;101476.17;107952;1263;60421;-75
2022/12/30 07:21:35;;;;;;;39.10;23.00;;;;;;;-0.24;100.00;101475.00;107863;1263;59806;-82
2022/12/30 07:24:04;;;;;;;40.80;23.60;;;;;;;-0.15;100.00;101480.16;107984;1258;74331;-76
2022/12/30 07:26:34;;;;;;;39.30;21.50;;;;;;;-0.07;100.00;101479.34;107985;1261;70891;-87
2022/12/30 07:29:05;;;;;;;44.80;23.80;;;;;;;0.04;99.98;101481.56;107875;1263;69709;-83
2022/12/30 07:31:34;;;;;;;46.30;23.00;;;;;;;0.18;99.84;101487.48;107899;1263;71559;-83
2022/12/30 07:34:03;;;;;;;42.60;22.50;;;;;;;0.31;99.16;101490.52;107889;1257;59616;-79
2022/12/30 07:36:32;;;;;;;45.30;24.50;;;;;;;0.45;98.73;101488.04;107769;1270;59663;-79
2022/12/30 07:39:01;;;;;;;42.50;23.80;;;;;;;0.52;97.84;101490.48;107919;1264;72393;-82
2022/12/30 07:41:30;;;;;;;42.20;24.10;;;;;;;0.66;97.51;101495.20;107946;1261;70201;-82
2022/12/30 07:43:59;;;;;;;44.30;24.10;;;;;;;0.83;97.46;101495.73;107926;1260;68331;-84
2022/12/30 07:46:28;;;;;;;41.20;23.90;;;;;;;0.88;95.66;101496.66;108010;1263;72061;-82
2022/12/30 07:48:57;;;;;;;41.60;24.70;;;;;;;0.96;95.87;101496.16;108036;1263;59989;-82
2022/12/30 07:51:26;;;;;;;40.50;22.20;;;;;;;0.98;94.81;101497.30;108029;1257;59999;-81
2022/12/30 07:53:56;;;;;;;38.20;22.70;;;;;;;1.09;95.03;101493.33;107886;1263;74314;-82
2022/12/30 07:56:34;;;;;;;40.50;21.00;;;;;;;1.23;94.36;101492.01;107908;1254;70067;-76
2022/12/30 07:59:03;;;;;;;41.90;22.50;;;;;;;1.30;93.47;101492.54;107934;1262;68334;-83
2022/12/30 08:01:32;;;;;;;40.80;22.10;;;;;;;1.43;92.82;101507.02;107891;1262;73516;-86
2022/12/30 08:04:01;;;;;;;41.20;23.30;;;;;;;1.44;92.43;101505.45;107728;1261;57794;-83
2022/12/30 08:06:50;;;;;;;38.50;21.10;;;;;;;1.57;93.08;101511.67;107800;1257;59690;-82
2022/12/30 08:09:18;;;;;;;43.50;21.80;;;;;;;1.68;92.08;101505.42;107865;1261;74145;-81
2022/12/30 08:11:47;;;;;;;35.50;21.00;;;;;;;1.69;91.84;101502.50;107911;1254;72593;-86
2022/12/30 08:14:16;;;;;;;37.30;22.30;;;;;;;1.73;90.94;101508.21;107804;1263;68448;-85
2022/12/30 08:16:45;;;;;;;36.40;21.30;;;;;;;1.82;90.93;101509.73;107807;1263;71118;-83
2022/12/30 08:19:14;;;;;;;36.90;22.00;;;;;;;1.95;91.48;101512.19;107716;1264;58731;-84
2022/12/30 08:21:43;;;;;;;42.60;22.60;;;;;;;2.01;90.28;101518.40;107895;1257;61179;-84
2022/12/30 08:24:15;;;;;;;39.20;23.00;;;;;;;2.06;89.72;101513.64;107685;1260;74603;-84
2022/12/30 08:26:43;;;;;;;35.90;21.20;;;;;;;2.23;90.07;101514.08;107960;1266;71646;-84
2022/12/30 08:29:12;;;;;;;39.70;22.60;;;;;;;2.34;88.59;101514.48;107907;1253;71817;-83
2022/12/30 08:31:43;;;;;;;37.20;19.90;;;;;;;2.41;88.58;101514.81;107791;1263;74267;-85
2022/12/30 08:34:12;;;;;;;42.00;22.90;;;;;;;2.51;87.54;101511.48;107919;1256;59810;-84
2022/12/30 08:36:42;;;;;;;41.20;21.80;;;;;;;2.59;87.61;101507.30;107837;1263;61864;-84
2022/12/30 08:39:11;;;;;;;42.60;22.00;;;;;;;2.64;86.65;101509.92;107777;1264;74359;-86
2022/12/30 08:41:44;;;;;;;42.40;23.30;;;;;;;2.67;86.44;101505.20;107809;1261;70594;-87
2022/12/30 08:44:18;;;;;;;38.20;21.20;;;;;;;2.78;86.79;101504.05;107780;1259;59235;-86
2022/12/30 08:46:47;;;;;;;37.60;21.50;;;;;;;2.90;86.01;101497.86;107911;1266;62526;-85
2022/12/30 08:49:16;;;;;;;36.20;20.80;;;;;;;2.95;85.64;101496.16;107753;1255;58324;-84
2022/12/30 08:51:45;;;;;;;38.10;23.10;;;;;;;3.04;85.22;101496.27;107740;1258;58855;-85
2022/12/30 08:54:16;;;;;;;39.70;21.50;;;;;;;3.09;84.91;101499.71;107949;1262;71613;-85
2022/12/30 08:56:48;;;;;;;39.80;21.50;;;;;;;3.24;84.80;101505.33;107960;1261;70317;-88
2022/12/30 08:59:18;;;;;;;43.00;23.50;;;;;;;3.27;84.90;101506.09;107859;1261;60275;-88
2022/12/30 09:01:47;;;;;;;38.30;22.00;;;;;;;3.32;84.59;101500.59;107749;1264;71848;-85
2022/12/30 09:04:17;;;;;;;41.40;23.10;;;;;;;3.44;83.69;101494.22;108053;1266;59660;-88
2022/12/30 09:06:46;;;;;;;46.10;24.70;;;;;;;3.58;83.23;101492.77;108061;1257;60220;-87
2022/12/30 09:09:15;;;;;;;38.50;22.90;;;;;;;3.64;82.50;101494.48;108340;1257;72174;-88
2022/12/30 09:11:44;;;;;;;46.20;23.80;;;;;;;3.76;82.62;101495.47;108284;1253;71302;-86
2022/12/30 09:14:15;;;;;;;42.00;22.80;;;;;;;3.83;82.32;101493.38;108065;1257;59499;-87
2022/12/30 09:16:44;;;;;;;42.00;23.20;;;;;;;3.89;81.75;101479.20;107857;1263;73911;-85
2022/12/30 09:19:13;;;;;;;39.20;20.30;;;;;;;4.02;81.87;101482.92;107888;1264;58264;-86
2022/12/30 09:21:55;;;;;;;47.20;24.20;;;;;;;4.11;81.60;101480.39;107963;1263;60318;-86
2022/12/30 09:24:24;;;;;;;41.90;21.70;;;;;;;4.15;81.20;101481.61;107920;1263;73726;-88
2022/12/30 09:26:53;;;;;;;40.30;23.70;;;;;;;4.25;80.10;101477.34;107965;1261;72761;-84
2022/12/30 09:29:28;;;;;;;36.40;22.90;;;;;;;4.35;79.48;101477.49;107875;1262;60348;-85
2022/12/30 09:31:57;;;;;;;39.00;22.20;;;;;;;4.42;78.91;101476.73;107950;1260;63252;-87
2022/12/30 09:34:28;;;;;;;39.60;23.70;;;;;;;4.51;78.80;101474.52;107766;1261;58627;-85
2022/12/30 09:36:57;;;;;;;37.70;22.50;;;;;;;4.60;78.57;101477.14;108037;1254;60663;-86
2022/12/30 09:39:32;;;;;;;39.20;23.30;;;;;;;4.67;77.89;101476.38;108006;1252;74770;-86
2022/12/30 09:45:23;;;;;;;37.00;21.40;;;;;;;4.75;77.58;101471.77;107971;1263;59546;-89
2022/12/30 09:47:58;;;;;;;40.50;22.60;;;;;;;4.90;77.10;101468.98;108088;1258;63916;-87
2022/12/30 09:50:43;;;;;;;37.50;22.20;;;;;;;4.89;77.09;101468.16;107852;1260;59526;-85
2022/12/30 09:53:13;;;;;;;38.50;22.70;;;;;;;4.87;77.08;101466.70;107960;1262;61451;-87
2022/12/30 09:55:54;;;;;;;36.80;22.00;;;;;;;4.88;76.82;101466.48;107984;1266;63565;-87
2022/12/30 09:58:34;;;;;;;40.70;24.50;;;;;;;4.94;76.64;101457.46;108153;1254;71401;-86
2022/12/30 10:01:43;;;;;;;36.20;22.30;;;;;;;4.96;76.66;101450.65;107932;1254;69453;-86
2022/12/30 10:04:24;;;;;;;40.30;22.10;;;;;;;5.07;76.60;101451.09;107961;1259;74382;-85
2022/12/30 10:07:15;;;;;;;48.30;24.00;;;;;;;5.12;76.28;101446.27;107866;1263;58249;-87
2022/12/30 10:10:03;;;;;;;40.60;23.40;;;;;;;5.16;76.33;101443.16;107852;1263;61565;-89
2022/12/30 10:12:51;;;;;;;49.20;23.90;;;;;;;5.32;76.22;101443.93;107870;1259;74826;-86
2022/12/30 10:15:28;;;;;;;40.50;23.40;;;;;;;5.41;75.71;101436.33;107987;1266;61978;-86
2022/12/30 10:18:15;;;;;;;39.10;21.40;;;;;;;5.55;75.73;101437.33;107882;1266;70383;-87
2022/12/30 10:21:06;;;;;;;36.60;23.80;;;;;;;5.46;75.10;101438.54;106864;1263;1575063;-87
2022/12/30 10:23:55;;;;;;;42.60;24.80;;;;;;;5.47;75.14;101437.48;108077;1266;57788;-87
2022/12/30 10:26:32;;;;;;;46.70;25.30;;;;;;;5.58;75.08;101436.16;107908;1263;61232;-87
2022/12/30 10:29:21;;;;;;;42.80;25.20;;;;;;;5.59;74.97;101430.92;108106;1253;73402;-88
2022/12/30 10:31:54;;;;;;;43.80;24.10;;;;;;;5.75;74.42;101423.71;108214;1254;61002;-85
2022/12/30 10:34:30;;;;;;;42.90;24.50;;;;;;;6.04;74.61;101418.76;107982;1260;69542;-87
2022/12/30 10:37:11;;;;;;;43.30;22.60;;;;;;;6.30;72.70;101406.89;107918;1262;73521;-87
2022/12/30 10:39:50;;;;;;;45.70;23.80;;;;;;;6.51;71.88;101403.75;108033;1259;57831;-87
2022/12/30 10:42:57;;;;;;;37.40;22.70;;;;;;;6.69;71.44;101406.23;107912;1260;59457;-87
2022/12/30 10:45:37;;;;;;;41.00;23.70;;;;;;;6.85;70.51;101406.70;108093;1262;72357;-87
2022/12/30 10:48:34;;;;;;;40.50;24.80;;;;;;;7.03;70.23;101401.53;108079;1258;62428;-90
2022/12/30 10:51:09;;;;;;;39.50;24.10;;;;;;;7.37;69.35;101402.73;107885;1260;60009;-88
2022/12/30 10:53:44;;;;;;;37.00;22.70;;;;;;;7.31;68.44;101397.42;107937;1264;73693;-88
2022/12/30 10:56:31;;;;;;;44.00;23.00;;;;;;;7.64;67.65;101395.86;108085;1266;58298;-87
2022/12/30 10:59:10;;;;;;;40.30;23.80;;;;;;;7.86;67.04;101396.64;107953;1263;58103;-88
2022/12/30 11:01:41;;;;;;;42.60;24.80;;;;;;;8.24;66.86;101396.44;107784;1266;73593;-90
2022/12/30 11:04:40;;;;;;;44.10;25.70;;;;;;;8.28;65.11;101397.49;108089;1254;71727;-88
2022/12/30 11:07:15;;;;;;;38.80;23.10;;;;;;;8.40;65.16;101397.23;108094;1266;60542;-84
2022/12/30 11:09:46;;;;;;;42.30;24.90;;;;;;;8.60;64.10;101392.36;107879;1263;73784;-84
2022/12/30 11:15:27;;;;;;;44.00;25.00;;;;;;;8.81;63.31;101390.35;107858;1260;59338;-88
2022/12/30 11:18:01;;;;;;;41.90;24.80;;;;;;;8.78;63.07;101394.52;107806;1263;74321;-87
2022/12/30 11:20:34;;;;;;;53.90;26.80;;;;;;;9.08;62.45;101397.20;107963;1258;71800;-88
2022/12/30 11:23:22;;;;;;;42.90;26.00;;;;;;;9.06;62.01;101399.09;108047;1266;58906;-88
2022/12/30 11:25:52;;;;;;;43.70;27.10;;;;;;;8.88;62.85;101400.09;107887;1266;72323;-84
2022/12/30 11:28:25;;;;;;;41.00;26.90;;;;;;;8.80;63.22;101404.98;108053;1257;60839;-89
2022/12/30 11:31:14;;;;;;;;;;;;;;;8.71;63.66;101408.28;108108;1255;61068;-88
2022/12/30 11:33:56;;;;;;;39.90;26.40;;;;;;;8.93;63.09;101403.95;107986;1263;63655;-89
2022/12/30 11:36:28;;;;;;;42.00;25.80;;;;;;;9.17;62.02;101405.78;107851;1258;71403;-88
2022/12/30 11:39:25;;;;;;;39.90;27.20;;;;;;;8.92;62.36;101411.81;108046;1265;70316;-88
2022/12/30 11:41:58;;;;;;;39.10;25.50;;;;;;;9.08;62.32;101411.14;107908;1259;63996;-91
2022/12/30 11:44:32;;;;;;;45.80;27.50;;;;;;;9.19;62.14;101413.11;107821;1267;61180;-89
2022/12/30 11:47:09;;;;;;;44.00;26.40;;;;;;;9.40;61.73;101409.66;107972;1257;60426;-90
2022/12/30 11:49:53;;;;;;;40.90;25.90;;;;;;;9.39;61.67;101411.30;107910;1263;74071;-88
2022/12/30 11:52:26;;;;;;;40.50;26.00;;;;;;;9.49;61.87;101409.87;107975;1264;61973;-88
2022/12/30 11:55:00;;;;;;;45.80;27.30;;;;;;;9.74;60.85;101402.88;107963;1263;70415;-89
2022/12/30 11:57:42;;;;;;;48.70;27.10;;;;;;;9.90;60.30;101406.44;107983;1262;63206;-87
2022/12/30 12:00:16;;;;;;;49.20;27.20;;;;;;;10.11;60.01;101404.84;108010;1258;60366;-88
2022/12/30 12:02:59;;;;;;;38.80;25.00;;;;;;;9.93;60.09;101405.25;107917;1271;57797;-88
2022/12/30 12:05:31;;;;;;;39.40;25.20;;;;;;;9.97;60.10;101402.76;107853;1253;72828;-90
2022/12/30 12:08:29;;;;;;;48.40;27.30;;;;;;;10.28;59.59;101399.54;107866;1254;61985;-86
2022/12/30 12:11:06;;;;;;;46.80;26.60;;;;;;;10.51;58.51;101406.69;107924;1266;69866;-89
2022/12/30 12:13:52;;;;;;;43.30;27.00;;;;;;;10.58;58.28;101415.80;107864;1257;73398;-87
2022/12/30 12:16:49;;;;;;;43.70;27.10;;;;;;;10.35;58.65;101418.09;107767;1255;60638;-85
2022/12/30 12:19:27;;;;;;;54.50;27.90;;;;;;;10.33;59.10;101419.25;107958;1263;60501;-87
2022/12/30 12:22:01;;;;;;;43.40;26.50;;;;;;;10.66;58.39;101416.56;107996;1260;73135;-86
2022/12/30 12:24:37;;;;;;;48.20;26.20;;;;;;;11.07;57.65;101418.58;107945;1258;72863;-86